sensor_id;sensor_type;location;lat;lon;timestamp;pressure;altitude;pressure_sealevel;temperature;humidity
18436;BME280;9346;52.006;4.720;2023-09-18T00:01:21;100546.69;;;19.64;100.00
18436;BME280;9346;52.006;4.720;2023-09-18T00:03:48;100529.44;;;19.62;100.00
18436;BME280;9346;52.006;4.720;2023-09-18T00:06:15;100537.47;;;19.63;100.00
18436;BME280;9346;52.006;4.720;2023-09-18T00:08:42;100535.84;;;19.62;100.00
18436;BME280;9346;52.006;4.720;2023-09-18T00:11:09;100529.44;;;19.62;100.00
18436;BME280;9346;52.006;4.720;2023-09-18T00:13:37;100526.66;;;19.62;100.00
18436;BME280;9346;52.006;4.720;2023-09-18T00:16:04;100526.66;;;19.62;100.00
18436;BME280;9346;52.006;4.720;2023-09-18T00:18:32;100521.53;;;19.64;100.00
18436;BME280;9346;52.006;4.720;2023-09-18T00:20:59;100520.72;;;19.63;100.00
18436;BME280;9346;52.006;4.720;2023-09-18T00:23:26;100508.25;;;19.61;100.00
18436;BME280;9346;52.006;4.720;2023-09-18T00:25:53;100500.66;;;19.61;100.00
18436;BME280;9346;52.006;4.720;2023-09-18T00:28:19;100495.91;;;19.62;100.00
18436;BME280;9346;52.006;4.720;2023-09-18T00:30:50;100495.91;;;19.62;100.00
18436;BME280;9346;52.006;4.720;2023-09-18T00:33:18;100494.75;;;19.63;100.00
18436;BME280;9346;52.006;4.720;2023-09-18T00:35:48;100493.13;;;19.62;100.00
18436;BME280;9346;52.006;4.720;2023-09-18T00:38:16;100485.56;;;19.62;100.00
18436;BME280;9346;52.006;4.720;2023-09-18T00:40:42;100479.50;;;19.60;100.00
18436;BME280;9346;52.006;4.720;2023-09-18T00:43:10;100471.94;;;19.61;100.00
18436;BME280;9346;52.006;4.720;2023-09-18T00:45:40;100471.94;;;19.61;100.00
18436;BME280;9346;52.006;4.720;2023-09-18T00:48:08;100465.19;;;19.62;100.00
18436;BME280;9346;52.006;4.720;2023-09-18T00:50:36;100442.81;;;19.62;100.00
18436;BME280;9346;52.006;4.720;2023-09-18T00:53:07;100434.94;;;19.64;100.00
18436;BME280;9346;52.006;4.720;2023-09-18T00:55:36;100434.44;;;19.62;100.00
18436;BME280;9346;52.006;4.720;2023-09-18T00:58:05;100414.53;;;19.63;100.00
18436;BME280;9346;52.006;4.720;2023-09-18T01:00:33;100409.31;;;19.62;100.00
18436;BME280;9346;52.006;4.720;2023-09-18T01:03:01;100410.47;;;19.61;100.00
18436;BME280;9346;52.006;4.720;2023-09-18T01:05:30;100406.03;;;19.60;100.00
18436;BME280;9346;52.006;4.720;2023-09-18T01:07:57;100395.69;;;19.60;100.00
18436;BME280;9346;52.006;4.720;2023-09-18T01:10:30;100385.00;;;19.62;100.00
18436;BME280;9346;52.006;4.720;2023-09-18T01:13:04;100395.34;;;19.62;100.00
18436;BME280;9346;52.006;4.720;2023-09-18T01:15:35;100388.56;;;19.63;100.00
18436;BME280;9346;52.006;4.720;2023-09-18T01:18:03;100377.41;;;19.63;100.00
18436;BME280;9346;52.006;4.720;2023-09-18T01:20:30;100388.22;;;19.64;100.00
18436;BME280;9346;52.006;4.720;2023-09-18T01:22:59;100402.88;;;19.61;100.00
18436;BME280;9346;52.006;4.720;2023-09-18T01:25:30;100407.19;;;19.59;100.00
18436;BME280;9346;52.006;4.720;2023-09-18T01:27:59;100399.97;;;19.58;100.00
18436;BME280;9346;52.006;4.720;2023-09-18T01:30:26;100400.78;;;19.58;100.00
18436;BME280;9346;52.006;4.720;2023-09-18T01:32:54;100399.97;;;19.58;100.00
18436;BME280;9346;52.006;4.720;2023-09-18T01:35:22;100395.19;;;19.58;100.00
18436;BME280;9346;52.006;4.720;2023-09-18T01:37:56;100389.59;;;19.58;100.00
18436;BME280;9346;52.006;4.720;2023-09-18T01:40:26;100387.63;;;19.59;100.00
18436;BME280;9346;52.006;4.720;2023-09-18T01:42:53;100386.47;;;19.60;100.00
18436;BME280;9346;52.006;4.720;2023-09-18T01:45:20;100382.06;;;19.59;100.00
18436;BME280;9346;52.006;4.720;2023-09-18T01:47:47;100379.75;;;19.61;100.00
18436;BME280;9346;52.006;4.720;2023-09-18T01:50:14;100374.50;;;19.59;100.00
18436;BME280;9346;52.006;4.720;2023-09-18T01:52:40;100373.31;;;19.60;100.00
18436;BME280;9346;52.006;4.720;2023-09-18T01:55:08;100379.75;;;19.61;100.00
18436;BME280;9346;52.006;4.720;2023-09-18T01:57:37;100383.34;;;19.61;100.00
18436;BME280;9346;52.006;4.720;2023-09-18T02:00:05;100382.53;;;19.61;100.00
18436;BME280;9346;52.006;4.720;2023-09-18T02:02:35;100393.72;;;19.61;100.00
18436;BME280;9346;52.006;4.720;2023-09-18T02:05:02;100408.47;;;19.61;100.00
18436;BME280;9346;52.006;4.720;2023-09-18T02:07:28;100400.09;;;19.61;100.00
18436;BME280;9346;52.006;4.720;2023-09-18T02:09:56;100409.31;;;19.62;100.00
18436;BME280;9346;52.006;4.720;2023-09-18T02:12:23;100412.09;;;19.62;100.00
18436;BME280;9346;52.006;4.720;2023-09-18T02:14:52;100404.53;;;19.62;100.00
18436;BME280;9346;52.006;4.720;2023-09-18T02:17:18;100400.94;;;19.62;100.00
18436;BME280;9346;52.006;4.720;2023-09-18T02:19:45;100405.69;;;19.61;100.00
18436;BME280;9346;52.006;4.720;2023-09-18T02:22:12;100406.50;;;19.62;100.00
18436;BME280;9346;52.006;4.720;2023-09-18T02:24:39;100398.13;;;19.62;100.00
18436;BME280;9346;52.006;4.720;2023-09-18T02:27:06;100394.50;;;19.61;100.00
18436;BME280;9346;52.006;4.720;2023-09-18T02:29:33;100385.78;;;19.63;100.00
18436;BME280;9346;52.006;4.720;2023-09-18T02:32:02;100381.84;;;19.64;100.00
18436;BME280;9346;52.006;4.720;2023-09-18T02:34:29;100375.88;;;19.65;100.00
18436;BME280;9346;52.006;4.720;2023-09-18T02:36:56;100365.88;;;19.64;100.00
18436;BME280;9346;52.006;4.720;2023-09-18T02:39:23;100366.22;;;19.63;100.00
18436;BME280;9346;52.006;4.720;2023-09-18T02:41:50;100357.84;;;19.63;100.00
18436;BME280;9346;52.006;4.720;2023-09-18T02:44:16;100325.50;;;19.62;100.00
18436;BME280;9346;52.006;4.720;2023-09-18T02:46:43;100324.81;;;19.65;100.00
18436;BME280;9346;52.006;4.720;2023-09-18T02:49:12;100321.66;;;19.66;100.00
18436;BME280;9346;52.006;4.720;2023-09-18T02:51:40;100294.16;;;19.68;100.00
18436;BME280;9346;52.006;4.720;2023-09-18T02:54:06;100292.34;;;19.72;100.00
18436;BME280;9346;52.006;4.720;2023-09-18T02:56:33;100282.31;;;19.71;100.00
18436;BME280;9346;52.006;4.720;2023-09-18T02:59:00;100285.56;;;19.73;100.00
18436;BME280;9346;52.006;4.720;2023-09-18T03:01:27;100268.13;;;19.76;100.00
18436;BME280;9346;52.006;4.720;2023-09-18T03:03:54;100253.44;;;19.79;100.00
18436;BME280;9346;52.006;4.720;2023-09-18T03:06:25;100265.44;;;19.80;100.00
18436;BME280;9346;52.006;4.720;2023-09-18T03:08:52;100270.91;;;19.76;100.00
18436;BME280;9346;52.006;4.720;2023-09-18T03:11:19;100258.81;;;19.72;100.00
18436;BME280;9346;52.006;4.720;2023-09-18T03:13:46;100241.69;;;19.74;100.00
18436;BME280;9346;52.006;4.720;2023-09-18T03:16:13;100257.78;;;19.77;100.00
18436;BME280;9346;52.006;4.720;2023-09-18T03:18:40;100274.41;;;19.73;100.00
18436;BME280;9346;52.006;4.720;2023-09-18T03:21:07;100287.09;;;19.71;100.00
18436;BME280;9346;52.006;4.720;2023-09-18T03:23:36;100286.63;;;19.69;100.00
18436;BME280;9346;52.006;4.720;2023-09-18T03:26:02;100304.06;;;19.66;100.00
18436;BME280;9346;52.006;4.720;2023-09-18T03:28:29;100306.88;;;19.66;100.00
18436;BME280;9346;52.006;4.720;2023-09-18T03:30:57;100314.91;;;19.67;100.00
18436;BME280;9346;52.006;4.720;2023-09-18T03:33:24;100308.50;;;19.67;100.00
18436;BME280;9346;52.006;4.720;2023-09-18T03:35:52;100296.63;;;19.70;100.00
18436;BME280;9346;52.006;4.720;2023-09-18T03:38:19;100298.28;;;19.71;100.00
18436;BME280;9346;52.006;4.720;2023-09-18T03:40:48;100309.22;;;19.76;100.00
18436;BME280;9346;52.006;4.720;2023-09-18T03:43:15;100303.41;;;19.81;100.00
18436;BME280;9346;52.006;4.720;2023-09-18T03:45:42;100313.53;;;19.85;100.00
18436;BME280;9346;52.006;4.720;2023-09-18T03:48:08;100325.31;;;19.91;100.00
18436;BME280;9346;52.006;4.720;2023-09-18T03:50:35;100309.47;;;19.95;100.00
18436;BME280;9346;52.006;4.720;2023-09-18T03:53:02;100295.25;;;20.00;100.00
18436;BME280;9346;52.006;4.720;2023-09-18T03:55:29;100298.16;;;20.04;100.00
18436;BME280;9346;52.006;4.720;2023-09-18T03:57:58;100308.44;;;20.12;100.00
18436;BME280;9346;52.006;4.720;2023-09-18T04:00:25;100306.22;;;20.17;100.00
18436;BME280;9346;52.006;4.720;2023-09-18T04:02:54;100297.63;;;20.22;100.00
18436;BME280;9346;52.006;4.720;2023-09-18T04:05:20;100283.25;;;20.24;100.00
18436;BME280;9346;52.006;4.720;2023-09-18T04:07:47;100273.38;;;20.26;100.00
18436;BME280;9346;52.006;4.720;2023-09-18T04:10:14;100259.81;;;20.28;100.00
18436;BME280;9346;52.006;4.720;2023-09-18T04:12:45;100245.50;;;20.30;100.00
18436;BME280;9346;52.006;4.720;2023-09-18T04:15:15;100228.34;;;20.31;100.00
18436;BME280;9346;52.006;4.720;2023-09-18T04:17:43;100220.44;;;20.33;100.00
18436;BME280;9346;52.006;4.720;2023-09-18T04:20:10;100211.69;;;20.35;100.00
18436;BME280;9346;52.006;4.720;2023-09-18T04:22:43;100198.97;;;20.37;100.00
18436;BME280;9346;52.006;4.720;2023-09-18T04:25:11;100206.94;;;20.35;100.00
18436;BME280;9346;52.006;4.720;2023-09-18T04:27:38;100202.75;;;20.29;100.00
18436;BME280;9346;52.006;4.720;2023-09-18T04:30:06;100208.13;;;20.22;100.00
18436;BME280;9346;52.006;4.720;2023-09-18T04:32:36;100208.84;;;20.19;100.00
18436;BME280;9346;52.006;4.720;2023-09-18T04:35:03;100202.41;;;20.19;100.00
18436;BME280;9346;52.006;4.720;2023-09-18T04:37:30;100201.59;;;20.18;100.00
18436;BME280;9346;52.006;4.720;2023-09-18T04:39:57;100209.19;;;20.18;100.00
18436;BME280;9346;52.006;4.720;2023-09-18T04:42:24;100203.25;;;20.19;100.00
18436;BME280;9346;52.006;4.720;2023-09-18T04:44:51;100205.69;;;20.21;100.00
18436;BME280;9346;52.006;4.720;2023-09-18T04:47:18;100210.09;;;20.22;100.00
18436;BME280;9346;52.006;4.720;2023-09-18T04:49:47;100208.56;;;20.24;100.00
18436;BME280;9346;52.006;4.720;2023-09-18T04:52:14;100217.09;;;20.28;100.00
18436;BME280;9346;52.006;4.720;2023-09-18T04:54:42;100211.13;;;20.29;100.00
18436;BME280;9346;52.006;4.720;2023-09-18T04:57:09;100207.50;;;20.29;100.00
18436;BME280;9346;52.006;4.720;2023-09-18T04:59:36;100203.91;;;20.28;100.00
18436;BME280;9346;52.006;4.720;2023-09-18T05:02:03;100197.50;;;20.28;100.00
18436;BME280;9346;52.006;4.720;2023-09-18T05:04:30;100196.34;;;20.29;100.00
18436;BME280;9346;52.006;4.720;2023-09-18T05:06:58;100188.06;;;20.32;100.00
18436;BME280;9346;52.006;4.720;2023-09-18T05:09:27;100197.59;;;20.31;100.00
18436;BME280;9346;52.006;4.720;2023-09-18T05:11:54;100186.53;;;20.35;100.00
18436;BME280;9346;52.006;4.720;2023-09-18T05:14:21;100175.00;;;20.36;100.00
18436;BME280;9346;52.006;4.720;2023-09-18T05:16:48;100183.72;;;20.35;100.00
18436;BME280;9346;52.006;4.720;2023-09-18T05:19:15;100179.31;;;20.34;100.00
18436;BME280;9346;52.006;4.720;2023-09-18T05:21:41;100180.09;;;20.34;100.00
18436;BME280;9346;52.006;4.720;2023-09-18T05:24:12;100175.81;;;20.37;100.00
18436;BME280;9346;52.006;4.720;2023-09-18T05:26:40;100169.41;;;20.36;100.00
18436;BME280;9346;52.006;4.720;2023-09-18T05:29:07;100177.78;;;20.36;100.00
18436;BME280;9346;52.006;4.720;2023-09-18T05:31:35;100184.19;;;20.37;100.00
18436;BME280;9346;52.006;4.720;2023-09-18T05:34:02;100179.88;;;20.39;100.00
18436;BME280;9346;52.006;4.720;2023-09-18T05:36:30;100175.91;;;20.40;100.00
18436;BME280;9346;52.006;4.720;2023-09-18T05:38:56;100177.53;;;20.41;100.00
18436;BME280;9346;52.006;4.720;2023-09-18T05:41:25;100181.50;;;20.40;100.00
18436;BME280;9346;52.006;4.720;2023-09-18T05:43:54;100196.19;;;20.37;100.00
18436;BME280;9346;52.006;4.720;2023-09-18T05:46:21;100198.97;;;20.37;100.00
18436;BME280;9346;52.006;4.720;2023-09-18T05:48:48;100184.19;;;20.37;100.00
18436;BME280;9346;52.006;4.720;2023-09-18T05:51:14;100162.97;;;20.36;100.00
18436;BME280;9346;52.006;4.720;2023-09-18T05:53:41;100168.56;;;20.36;100.00
18436;BME280;9346;52.006;4.720;2023-09-18T05:56:08;100175.81;;;20.37;100.00
18436;BME280;9346;52.006;4.720;2023-09-18T05:58:37;100169.41;;;20.36;100.00
18436;BME280;9346;52.006;4.720;2023-09-18T06:01:04;100187.78;;;20.37;100.00
18436;BME280;9346;52.006;4.720;2023-09-18T06:03:31;100189.78;;;20.37;100.00
18436;BME280;9346;52.006;4.720;2023-09-18T06:06:00;100198.19;;;20.37;100.00
18436;BME280;9346;52.006;4.720;2023-09-18T06:08:29;100197.81;;;20.38;100.00
18436;BME280;9346;52.006;4.720;2023-09-18T06:10:57;100190.59;;;20.37;100.00
18436;BME280;9346;52.006;4.720;2023-09-18T06:13:24;100192.22;;;20.38;100.00
18436;BME280;9346;52.006;4.720;2023-09-18T06:15:53;100197.44;;;20.40;100.00
18436;BME280;9346;52.006;4.720;2023-09-18T06:18:21;100198.28;;;20.40;100.00
18436;BME280;9346;52.006;4.720;2023-09-18T06:20:48;100208.28;;;20.41;100.00
18436;BME280;9346;52.006;4.720;2023-09-18T06:23:16;100205.50;;;20.41;100.00
18436;BME280;9346;52.006;4.720;2023-09-18T06:25:42;100209.00;;;20.38;100.00
18436;BME280;9346;52.006;4.720;2023-09-18T06:28:09;100200.72;;;20.42;100.00
18436;BME280;9346;52.006;4.720;2023-09-18T06:30:36;100211.00;;;20.38;100.00
18436;BME280;9346;52.006;4.720;2023-09-18T06:33:05;100208.56;;;20.36;100.00
18436;BME280;9346;52.006;4.720;2023-09-18T06:35:31;100202.97;;;20.36;100.00
18436;BME280;9346;52.006;4.720;2023-09-18T06:37:58;100211.34;;;20.36;100.00
18436;BME280;9346;52.006;4.720;2023-09-18T06:40:25;100209.72;;;20.35;100.00
18436;BME280;9346;52.006;4.720;2023-09-18T06:42:58;100215.75;;;20.37;100.00
18436;BME280;9346;52.006;4.720;2023-09-18T06:45:26;100205.06;;;20.39;100.00
18436;BME280;9346;52.006;4.720;2023-09-18T06:47:53;100203.88;;;20.40;100.00
18436;BME280;9346;52.006;4.720;2023-09-18T06:50:21;100210.72;;;20.43;100.00
18436;BME280;9346;52.006;4.720;2023-09-18T06:52:48;100213.44;;;20.39;100.00
18436;BME280;9346;52.006;4.720;2023-09-18T06:55:16;100211.78;;;20.38;100.00
18436;BME280;9346;52.006;4.720;2023-09-18T06:57:43;100211.34;;;20.36;100.00
18436;BME280;9346;52.006;4.720;2023-09-18T07:00:10;100208.06;;;20.34;100.00
18436;BME280;9346;52.006;4.720;2023-09-18T07:02:39;100211.22;;;20.33;100.00
18436;BME280;9346;52.006;4.720;2023-09-18T07:05:09;100212.75;;;20.30;100.00
18436;BME280;9346;52.006;4.720;2023-09-18T07:07:38;100213.13;;;20.29;100.00
18436;BME280;9346;52.006;4.720;2023-09-18T07:10:06;100206.34;;;20.30;100.00
18436;BME280;9346;52.006;4.720;2023-09-18T07:12:34;100208.69;;;20.28;100.00
18436;BME280;9346;52.006;4.720;2023-09-18T07:15:02;100196.69;;;20.27;100.00
18436;BME280;9346;52.006;4.720;2023-09-18T07:17:29;100197.84;;;20.26;100.00
18436;BME280;9346;52.006;4.720;2023-09-18T07:19:56;100203.47;;;20.26;100.00
18436;BME280;9346;52.006;4.720;2023-09-18T07:22:24;100208.56;;;20.24;100.00
18436;BME280;9346;52.006;4.720;2023-09-18T07:24:53;100213.00;;;20.25;100.00
18436;BME280;9346;52.006;4.720;2023-09-18T07:27:19;100215.34;;;20.23;100.00
18436;BME280;9346;52.006;4.720;2023-09-18T07:29:46;100209.97;;;20.18;100.00
18436;BME280;9346;52.006;4.720;2023-09-18T07:32:13;100195.91;;;20.15;100.00
18436;BME280;9346;52.006;4.720;2023-09-18T07:34:40;100211.50;;;20.16;100.00
18436;BME280;9346;52.006;4.720;2023-09-18T07:37:07;100212.69;;;20.15;100.00
18436;BME280;9346;52.006;4.720;2023-09-18T07:39:35;100211.88;;;20.14;100.00
18436;BME280;9346;52.006;4.720;2023-09-18T07:42:04;100215.84;;;20.13;100.00
18436;BME280;9346;52.006;4.720;2023-09-18T07:44:31;100221.44;;;20.13;100.00
18436;BME280;9346;52.006;4.720;2023-09-18T07:46:58;100228.63;;;20.14;100.00
18436;BME280;9346;52.006;4.720;2023-09-18T07:49:26;100235.41;;;20.13;100.00
18436;BME280;9346;52.006;4.720;2023-09-18T07:51:53;100231.78;;;20.13;100.00
18436;BME280;9346;52.006;4.720;2023-09-18T07:54:20;100236.69;;;20.16;100.00
18436;BME280;9346;52.006;4.720;2023-09-18T07:56:47;100231.56;;;20.18;100.00
18436;BME280;9346;52.006;4.720;2023-09-18T07:59:16;100234.22;;;20.14;100.00
18436;BME280;9346;52.006;4.720;2023-09-18T08:01:43;100246.94;;;20.12;100.00
18436;BME280;9346;52.006;4.720;2023-09-18T08:04:09;100246.94;;;20.12;100.00
18436;BME280;9346;52.006;4.720;2023-09-18T08:06:36;100246.25;;;20.15;100.00
18436;BME280;9346;52.006;4.720;2023-09-18T08:09:06;100247.03;;;20.15;100.00
18436;BME280;9346;52.006;4.720;2023-09-18T08:11:34;100250.78;;;20.19;100.00
18436;BME280;9346;52.006;4.720;2023-09-18T08:14:07;100256.47;;;20.23;100.00
18436;BME280;9346;52.006;4.720;2023-09-18T08:16:38;100260.09;;;20.23;100.00
18436;BME280;9346;52.006;4.720;2023-09-18T08:19:05;100264.16;;;20.26;100.00
18436;BME280;9346;52.006;4.720;2023-09-18T08:21:32;100259.81;;;20.28;100.00
18436;BME280;9346;52.006;4.720;2023-09-18T08:23:59;100265.91;;;20.30;100.00
18436;BME280;9346;52.006;4.720;2023-09-18T08:26:25;100265.53;;;20.32;100.00
18436;BME280;9346;52.006;4.720;2023-09-18T08:28:53;100271.00;;;20.40;100.00
18436;BME280;9346;52.006;4.720;2023-09-18T08:31:19;100273.56;;;20.45;100.00
18436;BME280;9346;52.006;4.720;2023-09-18T08:33:48;100269.34;;;20.51;100.00
18436;BME280;9346;52.006;4.720;2023-09-18T08:36:16;100267.91;;;20.57;100.00
18436;BME280;9346;52.006;4.720;2023-09-18T08:38:42;100273.50;;;20.57;100.00
18436;BME280;9346;52.006;4.720;2023-09-18T08:41:12;100274.44;;;20.61;100.00
18436;BME280;9346;52.006;4.720;2023-09-18T08:43:39;100274.91;;;20.63;100.00
18436;BME280;9346;52.006;4.720;2023-09-18T08:46:09;100274.19;;;20.66;100.00
18436;BME280;9346;52.006;4.720;2023-09-18T08:48:36;100269.41;;;20.67;100.00
18436;BME280;9346;52.006;4.720;2023-09-18T08:51:06;100280.00;;;20.73;100.00
18436;BME280;9346;52.006;4.720;2023-09-18T08:53:35;100278.94;;;20.78;100.00
18436;BME280;9346;52.006;4.720;2023-09-18T08:56:04;100279.88;;;20.82;100.00
18436;BME280;9346;52.006;4.720;2023-09-18T08:58:32;100283.47;;;20.82;100.00
18436;BME280;9346;52.006;4.720;2023-09-18T09:01:02;100284.63;;;20.81;100.00
18436;BME280;9346;52.006;4.720;2023-09-18T09:03:31;100284.16;;;20.79;100.00
18436;BME280;9346;52.006;4.720;2023-09-18T09:05:59;100287.31;;;20.78;100.00
18436;BME280;9346;52.006;4.720;2023-09-18T09:08:29;100287.44;;;20.81;100.00
18436;BME280;9346;52.006;4.720;2023-09-18T09:10:57;100294.31;;;20.84;100.00
18436;BME280;9346;52.006;4.720;2023-09-18T09:13:24;100293.13;;;20.85;100.00
18436;BME280;9346;52.006;4.720;2023-09-18T09:15:53;100288.34;;;20.85;100.00
18436;BME280;9346;52.006;4.720;2023-09-18T09:18:22;100293.88;;;20.82;100.00
18436;BME280;9346;52.006;4.720;2023-09-18T09:20:53;100303.06;;;20.82;100.00
18436;BME280;9346;52.006;4.720;2023-09-18T09:23:23;100297.03;;;20.80;100.00
18436;BME280;9346;52.006;4.720;2023-09-18T09:25:52;100290.59;;;20.80;100.00
18436;BME280;9346;52.006;4.720;2023-09-18T09:28:29;100296.91;;;20.77;100.00
18436;BME280;9346;52.006;4.720;2023-09-18T09:31:00;100296.06;;;20.76;100.00
18436;BME280;9346;52.006;4.720;2023-09-18T09:33:28;100308.22;;;20.80;100.00
18436;BME280;9346;52.006;4.720;2023-09-18T09:35:55;100304.69;;;20.83;100.00
18436;BME280;9346;52.006;4.720;2023-09-18T09:38:28;100302.69;;;20.84;100.00
18436;BME280;9346;52.006;4.720;2023-09-18T09:40:58;100299.56;;;20.85;100.00
18436;BME280;9346;52.006;4.720;2023-09-18T09:43:26;100306.69;;;20.83;100.00
18436;BME280;9346;52.006;4.720;2023-09-18T09:45:58;100293.47;;;20.83;100.00
18436;BME280;9346;52.006;4.720;2023-09-18T09:48:25;100297.94;;;20.84;100.00
18436;BME280;9346;52.006;4.720;2023-09-18T09:50:56;100308.84;;;20.89;100.00
18436;BME280;9346;52.006;4.720;2023-09-18T09:53:45;100311.91;;;20.96;100.00
18436;BME280;9346;52.006;4.720;2023-09-18T09:56:15;100309.56;;;20.98;100.00
18436;BME280;9346;52.006;4.720;2023-09-18T09:58:44;100311.91;;;20.96;100.00
18436;BME280;9346;52.006;4.720;2023-09-18T10:01:30;100312.81;;;21.00;100.00
18436;BME280;9346;52.006;4.720;2023-09-18T10:03:59;100302.06;;;21.02;100.00
18436;BME280;9346;52.006;4.720;2023-09-18T10:06:27;100311.41;;;21.06;100.00
18436;BME280;9346;52.006;4.720;2023-09-18T10:08:56;100306.72;;;21.10;100.00
18436;BME280;9346;52.006;4.720;2023-09-18T10:11:26;100309.41;;;21.07;100.00
18436;BME280;9346;52.006;4.720;2023-09-18T10:13:55;100307.44;;;21.07;100.00
18436;BME280;9346;52.006;4.720;2023-09-18T10:16:24;100304.63;;;21.07;100.00
18436;BME280;9346;52.006;4.720;2023-09-18T10:19:02;100299.38;;;21.06;100.00
18436;BME280;9346;52.006;4.720;2023-09-18T10:21:38;100289.22;;;21.13;100.00
18436;BME280;9346;52.006;4.720;2023-09-18T10:24:13;100288.56;;;21.20;100.00
18436;BME280;9346;52.006;4.720;2023-09-18T10:26:48;100295.91;;;21.24;100.00
18436;BME280;9346;52.006;4.720;2023-09-18T10:29:18;100291.44;;;21.35;100.00
18436;BME280;9346;52.006;4.720;2023-09-18T10:31:47;100291.25;;;21.44;100.00
18436;BME280;9346;52.006;4.720;2023-09-18T10:34:15;100284.28;;;21.53;100.00
18436;BME280;9346;52.006;4.720;2023-09-18T10:36:43;100284.84;;;21.59;100.00
18436;BME280;9346;52.006;4.720;2023-09-18T10:39:10;100282.50;;;21.61;100.00
18436;BME280;9346;52.006;4.720;2023-09-18T10:41:38;100282.31;;;21.69;100.00
18436;BME280;9346;52.006;4.720;2023-09-18T10:44:07;100270.88;;;21.74;100.00
18436;BME280;9346;52.006;4.720;2023-09-18T10:46:34;100279.97;;;21.71;100.00
18436;BME280;9346;52.006;4.720;2023-09-18T10:49:01;100286.31;;;21.84;100.00
18436;BME280;9346;52.006;4.720;2023-09-18T10:51:31;100285.94;;;22.01;100.00
18436;BME280;9346;52.006;4.720;2023-09-18T10:53:58;100280.44;;;22.05;100.00
18436;BME280;9346;52.006;4.720;2023-09-18T10:56:25;100276.91;;;22.08;100.00
18436;BME280;9346;52.006;4.720;2023-09-18T10:58:59;100279.88;;;22.15;100.00
18436;BME280;9346;52.006;4.720;2023-09-18T11:01:29;100272.97;;;22.28;100.00
18436;BME280;9346;52.006;4.720;2023-09-18T11:03:58;100276.28;;;22.33;100.00
18436;BME280;9346;52.006;4.720;2023-09-18T11:06:27;100271.66;;;22.41;100.00
18436;BME280;9346;52.006;4.720;2023-09-18T11:08:59;100274.03;;;22.39;100.00
18436;BME280;9346;52.006;4.720;2023-09-18T11:11:29;100270.94;;;22.44;100.00
18436;BME280;9346;52.006;4.720;2023-09-18T11:13:59;100281.28;;;22.40;100.00
18436;BME280;9346;52.006;4.720;2023-09-18T11:16:35;100277.72;;;22.43;100.00
18436;BME280;9346;52.006;4.720;2023-09-18T11:19:12;100263.69;;;22.43;100.00
18436;BME280;9346;52.006;4.720;2023-09-18T11:21:40;100268.84;;;22.41;100.00
18436;BME280;9346;52.006;4.720;2023-09-18T11:26:42;100276.22;;;22.30;100.00
18436;BME280;9346;52.006;4.720;2023-09-18T11:29:10;100271.41;;;22.30;100.00
18436;BME280;9346;52.006;4.720;2023-09-18T11:31:47;100263.75;;;22.27;100.00
18436;BME280;9346;52.006;4.720;2023-09-18T11:34:15;100268.91;;;22.25;100.00
18436;BME280;9346;52.006;4.720;2023-09-18T11:36:46;100265.06;;;22.33;100.00
18436;BME280;9346;52.006;4.720;2023-09-18T11:39:33;100268.69;;;22.34;100.00
18436;BME280;9346;52.006;4.720;2023-09-18T11:42:12;100264.28;;;22.33;100.00
18436;BME280;9346;52.006;4.720;2023-09-18T11:44:41;100263.38;;;22.29;100.00
18436;BME280;9346;52.006;4.720;2023-09-18T11:47:14;100258.34;;;22.38;100.00
18436;BME280;9346;52.006;4.720;2023-09-18T11:49:50;100246.88;;;22.43;100.00
18436;BME280;9346;52.006;4.720;2023-09-18T11:52:20;100246.88;;;22.43;100.00
18436;BME280;9346;52.006;4.720;2023-09-18T11:54:48;100247.88;;;22.50;100.00
18436;BME280;9346;52.006;4.720;2023-09-18T11:57:17;100255.25;;;22.58;100.00
18436;BME280;9346;52.006;4.720;2023-09-18T11:59:44;100241.31;;;22.62;100.00
18436;BME280;9346;52.006;4.720;2023-09-18T12:02:14;100233.47;;;22.71;100.00
18436;BME280;9346;52.006;4.720;2023-09-18T12:04:53;100232.16;;;22.65;100.00
18436;BME280;9346;52.006;4.720;2023-09-18T12:07:20;100250.69;;;22.69;100.00
18436;BME280;9346;52.006;4.720;2023-09-18T12:09:48;100245.22;;;22.76;100.00
18436;BME280;9346;52.006;4.720;2023-09-18T12:12:16;100238.41;;;22.77;100.00
18436;BME280;9346;52.006;4.720;2023-09-18T12:14:43;100241.44;;;22.88;100.00
18436;BME280;9346;52.006;4.720;2023-09-18T12:17:15;100240.72;;;22.91;100.00
18436;BME280;9346;52.006;4.720;2023-09-18T12:19:50;100229.16;;;22.96;100.00
18436;BME280;9346;52.006;4.720;2023-09-18T12:22:23;100225.94;;;22.94;100.00
18436;BME280;9346;52.006;4.720;2023-09-18T12:24:50;100219.94;;;22.95;100.00
18436;BME280;9346;52.006;4.720;2023-09-18T12:27:18;100223.25;;;23.01;100.00
18436;BME280;9346;52.006;4.720;2023-09-18T12:29:45;100222.88;;;23.02;100.00
18436;BME280;9346;52.006;4.720;2023-09-18T12:32:15;100225.38;;;23.07;100.00
18436;BME280;9346;52.006;4.720;2023-09-18T12:34:41;100229.09;;;23.11;100.00
18436;BME280;9346;52.006;4.720;2023-09-18T12:37:09;100225.91;;;23.13;100.00
18436;BME280;9346;52.006;4.720;2023-09-18T12:39:36;100224.13;;;23.05;100.00
18436;BME280;9346;52.006;4.720;2023-09-18T12:42:04;100220.50;;;23.04;100.00
18436;BME280;9346;52.006;4.720;2023-09-18T12:44:31;100217.78;;;23.08;100.00
18436;BME280;9346;52.006;4.720;2023-09-18T12:46:59;100215.25;;;23.03;100.00
18436;BME280;9346;52.006;4.720;2023-09-18T12:49:30;100209.88;;;22.94;100.00
18436;BME280;9346;52.006;4.720;2023-09-18T12:51:57;100207.75;;;22.88;100.00
18436;BME280;9346;52.006;4.720;2023-09-18T12:54:38;100210.97;;;22.90;100.00
18436;BME280;9346;52.006;4.720;2023-09-18T12:57:05;100202.13;;;22.88;100.00
18436;BME280;9346;52.006;4.720;2023-09-18T12:59:35;100202.19;;;22.91;100.00